Weather at Josefa Camejo International Airport

Public forecast

Using degrees Celsius for public forecast. Weather courtesy of forecast.io.

Current aviation weather report (METAR) for Josefa Camejo International Airport

Report is more than 6 hours old.

Retrieved 2020/10/02 10:00 UTC (1 year ago):

SVJC 021000Z NI CHECK TEXT NEW ENDING ADDED KATLYTAA

Aviation forecast (TAF) for Josefa Camejo International Airport

Forecast is more than 12 hours old.

Retrieved 2021/10/20 18:21 UTC (2 days ago):

TAF TAF SVJC 201600Z 2018/2118 09012KT 9999 FEW013 TX35/2018Z TN22/2107Z TEMPO 2018/2022 08015KT 9000 -TSDZ SCT013 CB BKN090 FM210000 09008KT 9999 SCT013 SCT090